Flight Track Log - Related Links

Times and Time Zones

All times are in EDT time to prevent confusion due to time zone crossing. See the GJS3618 flight status page for this flight to view local times or setup timezone preferences in your user account.

Time Position Orientation Groundspeed Altitude Reporting Facility
EDT Latitude Longitude Course Direction KTS MPH feet Rate Location/Type
Fri 10:13:00 PM 39.8758 -104.5897 66° East 165 190 6,900  Level Denver Center
Fri 10:13:30 PM 39.8833 -104.5500 76° East 199 229 7,700 1,645 Climbing Denver TRACON
Fri 10:15:04 PM 39.8808 -104.4172 91° East 276 318 10,300 1,538 Climbing Denver Center
Fri 10:16:06 PM 39.8811 -104.2911 90° East 336 387 11,700 1,452 Climbing Denver Center
Fri 10:17:08 PM 39.9144 -104.1669 71° East 362 417 13,300 1,597 Climbing Denver Center
Fri 10:18:00 PM 39.9774 -103.9513 66° East  Level FlightAware Approximate
Fri 10:18:10 PM 39.9442 -104.0186 75° East 393 452 15,000  Level Denver Center
Fri 10:19:12 PM 39.9733 -103.8778 75° East 403 464 17,000 1,742 Climbing Denver Center
Fri 10:20:14 PM 40.0044 -103.7272 75° East 407 468 18,600 1,597 Climbing Denver Center
Fri 10:21:16 PM 40.0347 -103.5850 74° East 406 467 20,300 1,512 Climbing Denver Center
Fri 10:22:17 PM 40.0644 -103.4339 76° East 424 488 21,700 1,366 Climbing Denver Center
Fri 10:23:19 PM 40.0956 -103.2828 75° East 427 491 23,100 1,306 Climbing Denver Center
Fri 10:24:21 PM 40.1278 -103.1272 75° East 437 503 24,400 1,258 Climbing Denver Center
Fri 10:25:23 PM 40.1586 -102.9717 75° East 441 507 25,700 1,268 Climbing Denver Center
Fri 10:26:24 PM 40.1897 -102.8136 76° East 444 511 27,000 1,171 Climbing Denver Center
Fri 10:27:26 PM 40.2214 -102.6531 75° East 447 514 28,100 968 Climbing Denver Center
Fri 10:28:28 PM 40.2564 -102.4758 75° East 449 517 29,000 829 Climbing Denver Center
Fri 10:29:29 PM 40.2856 -102.3192 76° East 460 529 29,800 683 Climbing Denver Center
Fri 10:30:31 PM 40.3114 -102.1900 75° East 462 532 30,400 823 Climbing Denver Center
Fri 10:31:33 PM 40.3508 -101.9778 76° East 469 540 31,500 968 Climbing Denver Center
Fri 10:32:35 PM 40.3864 -101.7933 76° East 469 540 32,400 780 Climbing Denver Center
Fri 10:33:36 PM 40.4164 -101.6342 76° East 471 542 33,100 829 Climbing Denver Center
Fri 10:34:38 PM 40.4539 -101.4500 75° East 469 540 34,100 878 Climbing Denver Center
Fri 10:35:39 PM 40.4908 -101.2953 73° East 465 535 34,900 829 Climbing Denver Center
Fri 10:36:41 PM 40.5250 -101.1433 73° East 456 525 35,800 871 Climbing Denver Center
Fri 10:37:43 PM 40.5647 -100.9686 73° East 450 518 36,700 878 Climbing Denver Center
Fri 10:38:44 PM 40.5972 -100.8217 74° East 443 510 37,600 780 Climbing Denver Center
Fri 10:39:46 PM 40.6347 -100.6533 74° East 436 502 38,300 537 Climbing Denver Center
Fri 10:40:47 PM 40.6661 -100.5100 74° East 432 497 38,700 341 Climbing Denver Center
Fri 10:41:49 PM 40.7031 -100.3444 74° East 425 489 39,000 145 Climbing Denver Center
Fri 10:42:51 PM 40.7339 -100.1972 75° East 434 499 39,000  Level Denver Center
Fri 10:43:52 PM 40.7719 -100.0247 74° East 440 506 39,000  Level Denver Center
Fri 10:44:54 PM 40.8036 -99.8733 75° East 447 514 39,000  Level Denver Center
Fri 10:45:55 PM 40.8361 -99.7239 74° East 453 521 39,000  Level Denver Center
Fri 10:46:57 PM 40.8767 -99.5306 74° East 456 525 39,000  Level Denver Center
Fri 10:47:58 PM 40.9042 -99.4014 74° East 458 527 39,000  Level Denver Center
Fri 10:49:00 PM 40.9439 -99.2086 75° East 454 522 39,000  Level Denver Center
Fri 10:50:01 PM 40.9756 -99.0536 75° East 451 519 39,000  Level Denver Center
Fri 10:51:02 PM 41.0119 -98.8742 75° East 452 520 39,000  Level Denver Center
Fri 10:52:04 PM 41.0406 -98.7336 75° East 454 522 39,000  Level Denver Center
Fri 10:53:05 PM 41.0792 -98.5444 75° East 453 521 39,000  Level Denver Center
Fri 10:54:07 PM 41.1108 -98.3858 75° East 450 518 39,000  Level Denver Center
Fri 10:55:17 PM 41.1478 -98.1939 76° East 450 518 39,000  Level Minneapolis Center
Fri 10:56:18 PM 41.1789 -98.0350 75° East 448 516 39,000  Level Minneapolis Center
Fri 10:57:19 PM 41.2097 -97.8767 75° East 445 512 39,000  Level Minneapolis Center
Fri 10:58:20 PM 41.2406 -97.7186 75° East 443 510 39,000  Level Minneapolis Center
Fri 10:59:22 PM 41.2708 -97.5600 76° East 443 510 39,000  Level Minneapolis Center
Fri 11:00:23 PM 41.2944 -97.4331 76° East 443 510 39,000  Level Minneapolis Center
Fri 11:01:24 PM 41.3336 -97.2317 75° East 442 509 39,000  Level Minneapolis Center
Fri 11:02:25 PM 41.3622 -97.0736 76° East 441 507 39,000  Level Minneapolis Center
Fri 11:03:26 PM 41.3908 -96.9172 76° East 437 503 39,000  Level Minneapolis Center
Fri 11:04:28 PM 41.4203 -96.7594 76° East 437 503 39,000  Level Minneapolis Center
Fri 11:05:29 PM 41.4489 -96.6039 76° East 434 499 39,000  Level Minneapolis Center
Fri 11:06:30 PM 41.4775 -96.4467 76° East 433 498 39,000  Level Minneapolis Center
Fri 11:07:31 PM 41.5081 -96.2689 77° East 437 503 39,000  Level Minneapolis Center
Fri 11:08:32 PM 41.5361 -96.1122 76° East 434 499 39,000  Level Minneapolis Center
Fri 11:09:34 PM 41.5639 -95.9556 77° East 434 499 39,000  Level Minneapolis Center
Fri 11:10:35 PM 41.5917 -95.7981 77° East 435 501 39,000  Level Minneapolis Center
Fri 11:11:36 PM 41.6194 -95.6364 77° East 434 499 39,000  Level Minneapolis Center
Fri 11:12:49 PM 41.6442 -95.4903 77° East 438 504 39,000  Level Minneapolis Center
Fri 11:13:51 PM 41.6761 -95.2989 77° East 439 505 39,000  Level Minneapolis Center
Fri 11:14:52 PM 41.7022 -95.1414 77° East 436 502 39,000  Level Minneapolis Center
Fri 11:15:53 PM 41.7350 -94.9508 77° East 438 504 39,000  Level Minneapolis Center
Fri 11:16:54 PM 41.7600 -94.7900 78° East 439 505 39,000  Level Minneapolis Center
Fri 11:17:55 PM 41.7867 -94.6311 77° East 438 504 39,000  Level Minneapolis Center
Fri 11:18:57 PM 41.8125 -94.4706 78° East 440 506 39,000  Level Minneapolis Center
Fri 11:19:58 PM 41.8378 -94.3108 78° East 439 505 39,000  Level Minneapolis Center
Fri 11:20:59 PM 41.8639 -94.1511 78° East 439 505 39,000  Level Minneapolis Center
Fri 11:22:00 PM 41.8889 -93.9914 78° East 438 504 39,000  Level Minneapolis Center
Fri 11:23:01 PM 41.9153 -93.8269 78° East 440 506 39,000  Level Minneapolis Center
Fri 11:24:02 PM 41.9392 -93.6658 79° East 442 509 39,000  Level Minneapolis Center
Fri 11:25:03 PM 41.9669 -93.4853 78° East 444 511 39,000  Level Minneapolis Center
Fri 11:26:04 PM 41.9922 -93.3253 78° East 443 510 39,000  Level Minneapolis Center
Fri 11:27:06 PM 42.0161 -93.1636 79° East 444 511 39,000  Level Minneapolis Center
Fri 11:28:07 PM 42.0400 -93.0008 79° East 446 513 39,000  Level Minneapolis Center
Fri 11:29:08 PM 42.0633 -92.8383 79° East 447 514 39,000  Level Minneapolis Center
Fri 11:30:09 PM 42.0864 -92.6764 79° East 446 513 39,000  Level Minneapolis Center
Fri 11:30:51 PM 42.1056 -92.5436 79° East 449 517 39,000  Level Chicago Center
Fri 11:31:52 PM 42.1292 -92.3814 79° East 447 514 39,000  Level Chicago Center
Fri 11:32:11 PM 42.1336 -92.3494 79° East 448 516 39,000  Level Minneapolis Center
Fri 11:33:12 PM 42.1597 -92.1544 80° East 447 514 39,000  Level Minneapolis Center
Fri 11:33:55 PM 42.1739 -92.0586 79° East 441 507 39,000  Level Chicago Center
Fri 11:34:56 PM 42.1961 -91.8975 79° East 442 509 39,000  Level Chicago Center
Fri 11:35:57 PM 42.2169 -91.7403 80° East 434 499 39,000  Level Chicago Center
Fri 11:36:58 PM 42.2431 -91.5494 79° East 436 502 39,000  Level Chicago Center
Fri 11:37:59 PM 42.2639 -91.3914 80° East 435 501 39,000  Level Chicago Center
Fri 11:39:00 PM 42.2844 -91.2331 80° East 436 502 39,000  Level Chicago Center
Fri 11:40:01 PM 42.3053 -91.0753 80° East 433 498 39,000  Level Chicago Center
Fri 11:41:02 PM 42.3233 -90.9183 81° East 430 495 39,000  Level Chicago Center
Fri 11:42:03 PM 42.3447 -90.7597 80° East 433 498 39,000  Level Chicago Center
Fri 11:43:04 PM 42.3642 -90.5989 81° East 437 503 39,000  Level Chicago Center
Fri 11:44:05 PM 42.3847 -90.4397 80° East 437 503 39,000  Level Chicago Center
Fri 11:45:06 PM 42.4072 -90.2478 81° East 436 502 39,000  Level Chicago Center
Fri 11:46:07 PM 42.4264 -90.0872 81° East 437 503 39,000  Level Chicago Center
Fri 11:47:08 PM 42.4456 -89.9275 81° East 435 501 39,000  Level Chicago Center
Fri 11:48:09 PM 42.4647 -89.7703 81° East 434 499 39,000  Level Chicago Center
Fri 11:49:10 PM 42.4828 -89.6103 81° East 432 497 39,000  Level Chicago Center
Fri 11:50:11 PM 42.5011 -89.4500 81° East 433 498 39,000  Level Chicago Center
Fri 11:51:12 PM 42.5231 -89.2647 81° East 430 495 39,000  Level Chicago Center
Fri 11:52:13 PM 42.5406 -89.1033 82° East 432 497 39,000  Level Chicago Center
Fri 11:53:14 PM 42.5583 -88.9417 81° East 433 498 39,000  Level Chicago Center
Fri 11:54:15 PM 42.5761 -88.7803 81° East 435 501 39,000 -393 Level Chicago Center
Fri 11:55:16 PM 42.5928 -88.6181 82° East 436 502 38,200 -656 Descending Chicago Center
Fri 11:57:18 PM 42.6275 -88.2942 82° East 433 498 37,000 -393 Descending Chicago Center
Fri 11:58:19 PM 42.6439 -88.1383 82° East 426 490 37,000  Level Chicago Center
Fri 11:59:20 PM 42.6597 -87.9819 82° East 422 486 37,000 -639 Level Chicago Center
Sat 12:00:21 AM 42.6756 -87.8231 82° East 424 488 35,700 -2,213 Descending Chicago Center
Sat 12:01:22 AM 42.6942 -87.6367 82° East 427 491 32,500 -2,902 Descending Chicago Center
Sat 12:02:23 AM 42.7089 -87.4778 83° East 426 490 29,800 -2,557 Descending Chicago Center
Sat 12:03:24 AM 42.7233 -87.3306 82° East 426 490 27,300 -2,410 Descending Chicago Center
Sat 12:04:25 AM 42.7383 -87.1778 82° East 415 478 24,900 -2,164 Descending Chicago Center
Sat 12:05:26 AM 42.7503 -87.0472 83° East 361 415 22,900 -1,286 Descending Chicago Center
Sat 12:07:27 AM 42.7722 -86.8050 83° East 322 371 21,000 -988 Descending Chicago Center
Sat 12:09:29 AM 42.7944 -86.5625 83° East 317 365 18,900 -1,869 Descending Chicago Center
Sat 12:10:30 AM 42.8058 -86.4225 84° East 313 360 15,300 -3,098 Descending Chicago Center
Sat 12:11:31 AM 42.8158 -86.3092 83° East 305 351 12,600 -2,607 Descending Chicago Center
Sat 12:12:32 AM 42.8247 -86.2008 84° East 295 339 10,000 -1,820 Descending Chicago Center
Sat 12:13:33 AM 42.8336 -86.0992 83° East 276 318 8,900 -659 Descending Chicago Center
Sat 12:15:34 AM 42.8917 -85.9378 64° Northeast 285 328 8,000 -295 Descending Chicago Center
Sat 12:16:36 AM 42.9733 -85.9364 North 294 338 8,000 -393 Level Chicago Center
Sat 12:17:36 AM 43.0669 -85.9339 North 294 338 7,200 -496 Descending Chicago Center
Sat 12:18:37 AM 43.1089 -86.0056 309° West 305 351 7,000 -99 Descending Chicago Center
Sat 12:19:37 AM 43.0514 -86.0392 203° Southwest 266 306 7,000  Level Chicago Center
Sat 12:20:38 AM 42.9886 -85.9964 154° Southeast 266 306 7,000 -246 Level Chicago Center
Sat 12:21:39 AM 42.9264 -85.9556 154° Southeast 256 295 6,500 -787 Descending Chicago Center
Sat 12:22:40 AM 42.8628 -85.9061 150° Southeast 230 265 5,400 -992 Descending Chicago Center
Sat 12:23:40 AM 42.8528 -85.8303 100° East 209 241 4,500 -645 Descending Chicago Center
Sat 12:24:41 AM 42.8608 -85.7586 81° East 199 229 4,100 -689 Descending Chicago Center
Sat 12:25:42 AM 42.8678 -85.6917 82° East 183 211 3,100 -492 Descending Chicago Center
Sat 12:26:43 AM 42.8431 -85.6569 134° Southeast 180 207 3,100 -50 Level Chicago Center
Sat 12:27:43 AM 42.7997 -85.6681 191° South 177 204 3,000 -50 Descending Chicago Center
Sat 12:28:44 AM 42.8389 -85.6956 333° Northwest 212 244 3,000 -246 Level Chicago Center
Sat 12:29:45 AM 42.8653 -85.6469 53° Northeast 175 201 2,500 -595 Descending Chicago Center
Sat 12:30:45 AM 42.8700 -85.6011 82° East 141 162 1,800 -645 Descending Chicago Center
Sat 12:31:46 AM 42.8742 -85.5564 83° East 127 146 1,200 -443 Descending Chicago Center
Sat 12:32:47 AM 42.8808 -85.5028 80° East 125 144 900 -295 Descending Chicago Center
Sat 12:34:00 AM 42.8667 -85.5167 90° East  Level FlightAware Approximate

Login

Don't have an account? Register now (free) for customized features, flight alerts, and more!